createdAt,value
2022-12-14T00:01:38.894Z,-3.74
2022-12-14T00:04:09.768Z,-3.78
2022-12-14T00:06:37.148Z,-3.73
2022-12-14T00:09:06.065Z,-3.76
2022-12-14T00:11:34.413Z,-3.74
2022-12-14T00:14:03.519Z,-3.74
2022-12-14T00:16:32.994Z,-3.81
2022-12-14T00:19:01.732Z,-3.74
2022-12-14T00:21:28.915Z,-3.72
2022-12-14T00:23:59.819Z,-3.78
2022-12-14T00:26:30.844Z,-3.72
2022-12-14T00:28:59.453Z,-3.72
2022-12-14T00:31:26.703Z,-3.73
2022-12-14T00:33:54.700Z,-3.74
2022-12-14T00:36:21.936Z,-3.72
2022-12-14T00:38:48.965Z,-3.71
2022-12-14T00:41:16.080Z,-3.72
2022-12-14T00:43:43.402Z,-3.78
2022-12-14T00:46:11.067Z,-3.71
2022-12-14T00:48:38.287Z,-3.75
2022-12-14T00:51:06.351Z,-3.71
2022-12-14T00:53:33.442Z,-3.73
2022-12-14T00:56:07.477Z,-3.74
2022-12-14T00:58:35.279Z,-3.73
2022-12-14T01:01:09.956Z,-3.79
2022-12-14T01:03:37.271Z,-3.78
2022-12-14T01:06:04.604Z,-3.76
2022-12-14T01:08:37.479Z,-3.76
2022-12-14T01:11:07.662Z,-3.77
2022-12-14T01:13:36.022Z,-3.77
2022-12-14T01:16:12.637Z,-3.78
2022-12-14T01:18:42.217Z,-3.78
2022-12-14T01:21:10.870Z,-3.79
2022-12-14T01:23:38.034Z,-3.87
2022-12-14T01:26:06.567Z,-3.85
2022-12-14T01:28:35.338Z,-3.89
2022-12-14T01:31:12.198Z,-3.85
2022-12-14T01:33:39.943Z,-3.85
2022-12-14T01:36:10.140Z,-3.94
2022-12-14T01:38:37.671Z,-3.91
2022-12-14T01:41:07.578Z,-3.97
2022-12-14T01:43:49.069Z,-3.92
2022-12-14T01:46:39.134Z,-3.95
2022-12-14T01:49:19.199Z,-3.95
2022-12-14T01:51:54.896Z,-4.00
2022-12-14T01:54:22.447Z,-3.99
2022-12-14T01:56:50.174Z,-3.99
2022-12-14T01:59:23.154Z,-4.00
2022-12-14T02:01:52.227Z,-4.08
2022-12-14T02:04:20.160Z,-4.02
2022-12-14T02:06:49.273Z,-4.00
2022-12-14T02:09:23.425Z,-4.02
2022-12-14T02:12:14.843Z,-4.03
2022-12-14T02:14:42.222Z,-4.06
2022-12-14T02:17:12.099Z,-4.08
2022-12-14T02:19:41.682Z,-4.22
2022-12-14T02:22:27.280Z,-4.14
2022-12-14T02:25:00.693Z,-4.14
2022-12-14T02:27:42.888Z,-4.14
2022-12-14T02:30:18.767Z,-4.16
2022-12-14T02:33:09.946Z,-4.21
2022-12-14T02:35:42.675Z,-4.17
2022-12-14T02:38:15.743Z,-4.19
2022-12-14T02:41:15.142Z,-4.29
2022-12-14T02:43:57.387Z,-4.28
2022-12-14T02:46:39.393Z,-4.33
2022-12-14T02:49:33.438Z,-4.36
2022-12-14T02:52:14.505Z,-4.38
2022-12-14T02:54:47.490Z,-4.42
2022-12-14T02:57:29.693Z,-4.43
2022-12-14T03:00:00.389Z,-4.55
2022-12-14T03:02:29.547Z,-4.51
2022-12-14T03:04:56.754Z,-4.52
2022-12-14T03:07:23.877Z,-4.53
2022-12-14T03:09:52.251Z,-4.57
2022-12-14T03:12:20.655Z,-4.59
2022-12-14T03:14:52.531Z,-4.65
2022-12-14T03:17:25.415Z,-4.67
2022-12-14T03:20:12.965Z,-4.68
2022-12-14T03:22:47.170Z,-4.75
2022-12-14T03:25:20.719Z,-4.79
2022-12-14T03:28:13.273Z,-4.77
2022-12-14T03:31:00.076Z,-4.75
2022-12-14T03:33:30.325Z,-4.78
2022-12-14T03:36:07.501Z,-4.78
2022-12-14T03:38:47.385Z,-4.82
2022-12-14T03:41:34.492Z,-4.91
2022-12-14T03:44:29.779Z,-4.84
2022-12-14T03:47:27.293Z,-4.85
2022-12-14T03:50:02.086Z,-4.87
2022-12-14T03:52:37.074Z,-4.87
2022-12-14T03:55:38.951Z,-4.94
2022-12-14T03:58:07.412Z,-4.95
2022-12-14T04:00:51.246Z,-5.03
2022-12-14T04:04:15.720Z,-5.01
2022-12-14T04:06:52.571Z,-5.04
2022-12-14T04:09:40.268Z,-5.07
2022-12-14T04:12:39.030Z,-5.14
2022-12-14T04:15:34.155Z,-5.27
2022-12-14T04:18:26.251Z,-5.28
2022-12-14T04:21:03.431Z,-5.33
2022-12-14T04:24:01.388Z,-5.40
2022-12-14T04:26:34.791Z,-5.34
2022-12-14T04:29:30.136Z,-5.41
2022-12-14T04:32:25.298Z,-5.40
2022-12-14T04:35:02.250Z,-5.42
2022-12-14T04:37:31.068Z,-5.43
2022-12-14T04:40:07.566Z,-5.50
2022-12-14T04:42:48.499Z,-5.48
2022-12-14T04:45:24.902Z,-5.56
2022-12-14T04:48:02.496Z,-5.51
2022-12-14T04:50:36.614Z,-5.54
2022-12-14T04:53:20.931Z,-5.58
2022-12-14T04:55:53.371Z,-5.65
2022-12-14T04:58:26.233Z,-5.57
2022-12-14T05:01:11.876Z,-5.58
2022-12-14T05:04:12.923Z,-5.61
2022-12-14T05:06:51.701Z,-5.62
2022-12-14T05:09:39.167Z,-5.61
2022-12-14T05:12:16.930Z,-5.62
2022-12-14T05:14:49.716Z,-5.63
2022-12-14T05:17:17.970Z,-5.64
2022-12-14T05:19:50.608Z,-5.64
2022-12-14T05:22:18.357Z,-5.70
2022-12-14T05:24:45.459Z,-5.70
2022-12-14T05:27:12.795Z,-5.71
2022-12-14T05:29:40.047Z,-5.72
2022-12-14T05:32:11.006Z,-5.76
2022-12-14T05:34:38.370Z,-5.69
2022-12-14T05:37:06.788Z,-5.78
2022-12-14T05:39:33.801Z,-5.85
2022-12-14T05:42:00.879Z,-5.80
2022-12-14T05:44:27.882Z,-5.84
2022-12-14T05:46:55.617Z,-5.90
2022-12-14T05:49:22.649Z,-5.95
2022-12-14T05:51:49.750Z,-5.94
2022-12-14T05:54:17.059Z,-6.00
2022-12-14T05:56:44.087Z,-6.07
2022-12-14T05:59:15.439Z,-5.98
2022-12-14T06:01:43.882Z,-5.99
2022-12-14T06:04:15.664Z,-6.01
2022-12-14T06:06:43.116Z,-6.05
2022-12-14T06:09:14.133Z,-6.00
2022-12-14T06:11:41.752Z,-6.07
2022-12-14T06:14:09.858Z,-6.08
2022-12-14T06:16:40.203Z,-6.12
2022-12-14T06:19:07.870Z,-6.17
2022-12-14T06:21:40.007Z,-6.18
2022-12-14T06:24:08.062Z,-6.26
2022-12-14T06:26:42.877Z,-6.30
2022-12-14T06:29:18.553Z,-6.24
2022-12-14T06:31:45.704Z,-6.26
2022-12-14T06:34:17.596Z,-6.25
2022-12-14T06:36:46.923Z,-6.29
2022-12-14T06:39:16.424Z,-6.33
2022-12-14T06:41:43.922Z,-6.36
2022-12-14T06:44:14.075Z,-6.37
2022-12-14T06:46:41.654Z,-6.41
2022-12-14T06:49:13.943Z,-6.43
2022-12-14T06:51:42.068Z,-6.41
2022-12-14T06:54:13.887Z,-6.34
2022-12-14T06:56:43.066Z,-6.36
2022-12-14T06:59:11.233Z,-6.38
2022-12-14T07:01:41.588Z,-6.41
2022-12-14T07:04:10.193Z,-6.41
2022-12-14T07:06:40.074Z,-6.43
2022-12-14T07:09:11.652Z,-6.40
2022-12-14T07:11:38.761Z,-6.43
2022-12-14T07:14:12.474Z,-6.45
2022-12-14T07:16:40.020Z,-6.46
2022-12-14T07:19:07.455Z,-6.41
2022-12-14T07:21:34.512Z,-6.47
2022-12-14T07:24:01.879Z,-6.37
2022-12-14T07:26:29.994Z,-6.37
2022-12-14T07:29:00.523Z,-6.41
2022-12-14T07:31:28.999Z,-6.44
2022-12-14T07:33:59.505Z,-6.44
2022-12-14T07:36:28.831Z,-6.45
2022-12-14T07:38:56.951Z,-6.49
2022-12-14T07:41:30.415Z,-6.56
2022-12-14T07:43:59.418Z,-6.63
2022-12-14T07:46:28.475Z,-6.74
2022-12-14T07:48:57.676Z,-6.82
2022-12-14T07:51:27.594Z,-6.85
2022-12-14T07:53:54.890Z,-6.90
2022-12-14T07:56:27.903Z,-6.98
2022-12-14T07:58:57.272Z,-6.98
2022-12-14T08:01:26.860Z,-7.07
2022-12-14T08:03:57.109Z,-7.02
2022-12-14T08:06:26.769Z,-7.06
2022-12-14T08:08:54.490Z,-7.05
2022-12-14T08:11:24.922Z,-7.07
2022-12-14T08:13:54.914Z,-7.05
2022-12-14T08:16:22.768Z,-7.06
2022-12-14T08:18:49.983Z,-7.05
2022-12-14T08:21:20.887Z,-7.02
2022-12-14T08:23:49.275Z,-6.95
2022-12-14T08:26:16.505Z,-7.02
2022-12-14T08:28:43.662Z,-7.02
2022-12-14T08:31:16.117Z,-7.05
2022-12-14T08:33:44.341Z,-7.04
2022-12-14T08:36:17.914Z,-7.07
2022-12-14T08:38:45.308Z,-7.07
2022-12-14T08:41:14.264Z,-7.10
2022-12-14T08:43:41.676Z,-7.09
2022-12-14T08:46:10.113Z,-7.05
2022-12-14T08:48:37.817Z,-7.02
2022-12-14T08:51:08.332Z,-6.93
2022-12-14T08:53:37.367Z,-6.87
2022-12-14T08:56:10.902Z,-6.85
2022-12-14T08:58:39.289Z,-6.79
2022-12-14T09:01:15.809Z,-6.69
2022-12-14T09:03:47.131Z,-6.62
2022-12-14T09:06:17.055Z,-6.56
2022-12-14T09:08:45.233Z,-6.51
2022-12-14T09:11:14.474Z,-6.41
2022-12-14T09:13:42.497Z,-6.32
2022-12-14T09:16:20.661Z,-6.32
2022-12-14T09:18:49.216Z,-6.22
2022-12-14T09:21:18.052Z,-6.15
2022-12-14T09:23:45.835Z,-6.20
2022-12-14T09:26:14.454Z,-6.04
2022-12-14T09:28:44.677Z,-6.00
2022-12-14T09:31:13.983Z,-5.96
2022-12-14T09:33:41.752Z,-5.89
2022-12-14T09:36:21.656Z,-5.93
2022-12-14T09:38:55.194Z,-5.91
2022-12-14T09:41:22.662Z,-5.77
2022-12-14T09:43:56.862Z,-5.74
2022-12-14T09:46:50.022Z,-5.73
2022-12-14T09:49:32.382Z,-5.64
2022-12-14T09:52:04.433Z,-5.60
2022-12-14T09:54:37.067Z,-5.56
2022-12-14T09:57:29.418Z,-5.49
2022-12-14T09:59:56.779Z,-5.46
2022-12-14T10:02:31.508Z,-5.38
2022-12-14T10:05:11.429Z,-5.35
2022-12-14T10:07:56.689Z,-5.32
2022-12-14T10:10:50.865Z,-5.27
2022-12-14T10:13:23.110Z,-5.22
2022-12-14T10:15:56.087Z,-5.18
2022-12-14T10:19:03.199Z,-5.16
2022-12-14T10:21:57.635Z,-5.15
2022-12-14T10:24:31.180Z,-5.03
2022-12-14T10:26:58.683Z,-5.02
2022-12-14T10:29:32.325Z,-4.95
2022-12-14T10:32:06.218Z,-4.86
2022-12-14T10:34:35.340Z,-4.84
2022-12-14T10:37:12.117Z,-4.80
2022-12-14T10:39:57.515Z,-4.67
2022-12-14T10:42:42.500Z,-4.66
2022-12-14T10:45:40.121Z,-4.62
2022-12-14T10:48:17.492Z,-4.62
2022-12-14T10:50:57.703Z,-4.53
2022-12-14T10:53:47.805Z,-4.48
2022-12-14T10:56:25.526Z,-4.44
2022-12-14T10:59:20.662Z,-4.38
2022-12-14T11:02:00.878Z,-4.34
2022-12-14T11:04:32.117Z,-4.31
2022-12-14T11:07:02.093Z,-4.23
2022-12-14T11:09:29.863Z,-4.19
2022-12-14T11:12:03.949Z,-4.11
2022-12-14T11:14:32.334Z,-4.07
2022-12-14T11:16:59.654Z,-4.11
2022-12-14T11:19:28.258Z,-4.01
2022-12-14T11:22:20.144Z,-3.95
2022-12-14T11:24:49.284Z,-3.91
2022-12-14T11:27:21.393Z,-3.90
2022-12-14T11:29:50.752Z,-3.85
2022-12-14T11:32:25.257Z,-3.79
2022-12-14T11:34:59.049Z,-3.73
2022-12-14T11:37:31.563Z,-3.64
2022-12-14T11:40:01.515Z,-3.58
2022-12-14T11:42:28.796Z,-3.55
2022-12-14T11:45:27.707Z,-3.47
2022-12-14T11:48:13.266Z,-3.41
2022-12-14T11:50:41.848Z,-3.37
2022-12-14T11:53:14.737Z,-3.35
2022-12-14T11:56:12.803Z,-3.26
2022-12-14T11:58:49.303Z,-3.27
2022-12-14T12:01:19.512Z,-3.21
2022-12-14T12:03:52.129Z,-3.08
2022-12-14T12:06:22.602Z,-2.99
2022-12-14T12:09:11.483Z,-2.98
2022-12-14T12:11:45.264Z,-2.90
2022-12-14T12:14:29.463Z,-2.89
2022-12-14T12:16:57.900Z,-2.87
2022-12-14T12:19:30.705Z,-2.86
2022-12-14T12:22:00.868Z,-2.72
2022-12-14T12:25:25.019Z,-2.68
2022-12-14T12:27:56.954Z,-2.65
2022-12-14T12:30:30.467Z,-2.65
2022-12-14T12:33:21.795Z,-2.55
2022-12-14T12:35:57.444Z,-2.51
2022-12-14T12:38:36.941Z,-2.46
2022-12-14T12:41:21.639Z,-2.37
2022-12-14T12:43:54.545Z,-2.33
2022-12-14T12:46:28.314Z,-2.26
2022-12-14T12:49:15.814Z,-2.25
2022-12-14T12:51:51.505Z,-2.20
2022-12-14T12:54:24.588Z,-2.21
2022-12-14T12:56:55.847Z,-2.24
2022-12-14T12:59:37.092Z,-2.15
2022-12-14T13:02:42.813Z,-2.17
2022-12-14T13:08:26.784Z,-2.15
2022-12-14T13:11:25.234Z,-2.15
2022-12-14T13:14:02.320Z,-2.12
2022-12-14T13:16:38.021Z,-2.00
2022-12-14T13:19:54.456Z,-1.98
2022-12-14T13:22:33.571Z,-1.95
2022-12-14T13:25:12.569Z,-1.93
2022-12-14T13:28:11.284Z,-1.90
2022-12-14T13:31:03.154Z,-1.87
2022-12-14T13:34:15.205Z,-1.84
2022-12-14T13:37:01.228Z,-1.80
2022-12-14T13:40:02.479Z,-1.84
2022-12-14T13:42:57.812Z,-1.87
2022-12-14T13:45:32.216Z,-1.86
2022-12-14T13:47:59.674Z,-1.91
2022-12-14T13:50:36.608Z,-1.86
2022-12-14T13:53:21.476Z,-1.88
2022-12-14T13:55:54.495Z,-1.95
2022-12-14T13:58:39.406Z,-1.89
2022-12-14T14:01:11.808Z,-1.88
2022-12-14T14:03:38.906Z,-1.93
2022-12-14T14:06:09.229Z,-1.96
2022-12-14T14:08:42.080Z,-1.98
2022-12-14T14:14:27.163Z,-2.04
2022-12-14T14:17:03.354Z,-2.03
2022-12-14T14:19:37.422Z,-2.11
2022-12-14T14:22:26.417Z,-2.03
2022-12-14T14:24:56.208Z,-2.03
2022-12-14T14:27:50.596Z,-2.06
2022-12-14T14:30:28.505Z,-2.07
2022-12-14T14:33:07.655Z,-2.06
2022-12-14T14:35:40.507Z,-1.95
2022-12-14T14:38:26.031Z,-1.95
2022-12-14T14:41:16.628Z,-1.87
2022-12-14T14:43:52.150Z,-1.81
2022-12-14T14:46:23.430Z,-1.84
2022-12-14T14:48:54.458Z,-1.76
2022-12-14T14:51:30.074Z,-1.88
2022-12-14T14:55:03.479Z,-1.92
2022-12-14T14:57:56.534Z,-2.07
2022-12-14T15:00:23.686Z,-2.09
2022-12-14T15:02:53.425Z,-2.19
2022-12-14T15:05:42.024Z,-2.30
2022-12-14T15:08:20.750Z,-2.37
2022-12-14T15:10:50.156Z,-2.48
2022-12-14T15:13:23.141Z,-2.51
2022-12-14T15:15:53.447Z,-2.59
2022-12-14T15:18:23.566Z,-2.66
2022-12-14T15:20:59.476Z,-2.75
2022-12-14T15:23:34.725Z,-2.84
2022-12-14T15:26:14.636Z,-3.00
2022-12-14T15:28:47.607Z,-3.10
2022-12-14T15:31:15.105Z,-3.18
2022-12-14T15:33:43.610Z,-3.22
2022-12-14T15:36:16.265Z,-3.43
2022-12-14T15:38:54.777Z,-3.46
2022-12-14T15:41:24.305Z,-3.57
2022-12-14T15:43:55.129Z,-3.55
2022-12-14T15:46:26.949Z,-3.61
2022-12-14T15:49:04.020Z,-3.72
2022-12-14T15:51:41.170Z,-3.79
2022-12-14T15:54:16.061Z,-3.84
2022-12-14T15:56:53.669Z,-3.94
2022-12-14T15:59:28.421Z,-3.95
2022-12-14T16:02:06.708Z,-4.02
2022-12-14T16:04:37.905Z,-4.05
2022-12-14T16:07:39.291Z,-4.12
2022-12-14T16:10:28.525Z,-4.10
2022-12-14T16:13:03.793Z,-4.18
2022-12-14T16:15:31.680Z,-4.18
2022-12-14T16:18:02.743Z,-4.21
2022-12-14T16:20:37.740Z,-4.30
2022-12-14T16:23:13.299Z,-4.32
2022-12-14T16:26:01.131Z,-4.35
2022-12-14T16:28:28.140Z,-4.38
2022-12-14T16:31:01.640Z,-4.46
2022-12-14T16:33:30.808Z,-4.46
2022-12-14T16:36:01.781Z,-4.54
2022-12-14T16:38:30.188Z,-4.48
2022-12-14T16:41:01.042Z,-4.55
2022-12-14T16:43:38.374Z,-4.60
2022-12-14T16:46:06.285Z,-4.58
2022-12-14T16:48:36.976Z,-4.65
2022-12-14T16:51:37.870Z,-4.63
2022-12-14T16:54:23.775Z,-4.70
2022-12-14T16:57:07.309Z,-4.62
2022-12-14T16:59:45.603Z,-4.60
2022-12-14T17:02:34.536Z,-4.62
2022-12-14T17:05:17.667Z,-4.67
2022-12-14T17:07:45.015Z,-4.74
2022-12-14T17:10:17.988Z,-4.76
2022-12-14T17:12:45.280Z,-4.81
2022-12-14T17:15:14.268Z,-4.84
2022-12-14T17:17:41.840Z,-4.87
2022-12-14T17:20:21.217Z,-4.90
2022-12-14T17:22:49.445Z,-4.99
2022-12-14T17:25:17.464Z,-4.98
2022-12-14T17:27:44.561Z,-4.98
2022-12-14T17:30:16.677Z,-4.99
2022-12-14T17:32:45.040Z,-5.07
2022-12-14T17:35:20.843Z,-5.00
2022-12-14T17:37:48.323Z,-4.98
2022-12-14T17:40:16.741Z,-5.00
2022-12-14T17:42:49.385Z,-4.98
2022-12-14T17:45:20.693Z,-5.02
2022-12-14T17:47:48.337Z,-5.06
2022-12-14T17:50:17.257Z,-5.11
2022-12-14T17:52:45.500Z,-5.16
2022-12-14T17:55:18.944Z,-5.22
2022-12-14T17:57:46.394Z,-5.21
2022-12-14T18:00:36.955Z,-5.21
2022-12-14T18:03:06.529Z,-5.24
2022-12-14T18:05:33.935Z,-5.24
2022-12-14T18:08:01.135Z,-5.32
2022-12-14T18:10:28.862Z,-5.33
2022-12-14T18:12:56.354Z,-5.37
2022-12-14T18:15:28.502Z,-5.39
2022-12-14T18:17:55.997Z,-5.35
2022-12-14T18:20:24.114Z,-5.45
2022-12-14T18:22:52.090Z,-5.41
2022-12-14T18:25:40.917Z,-5.47
2022-12-14T18:28:10.783Z,-5.50
2022-12-14T18:30:47.552Z,-5.46
2022-12-14T18:33:23.253Z,-5.48
2022-12-14T18:35:51.760Z,-5.52
2022-12-14T18:38:19.185Z,-5.57
2022-12-14T18:40:49.629Z,-5.62
2022-12-14T18:43:23.373Z,-5.63
2022-12-14T18:45:52.244Z,-5.60
2022-12-14T18:48:20.318Z,-5.63
2022-12-14T18:50:49.732Z,-5.60
2022-12-14T18:53:19.074Z,-5.65
2022-12-14T18:55:47.037Z,-5.63
2022-12-14T18:58:22.306Z,-5.66
2022-12-14T19:00:51.910Z,-5.67
2022-12-14T19:03:19.227Z,-5.77
2022-12-14T19:05:47.249Z,-5.77
2022-12-14T19:08:14.570Z,-5.79
2022-12-14T19:10:46.082Z,-5.72
2022-12-14T19:13:26.024Z,-5.77
2022-12-14T19:15:54.633Z,-5.73
2022-12-14T19:18:21.949Z,-5.72
2022-12-14T19:20:49.550Z,-5.74
2022-12-14T19:23:18.979Z,-5.76
2022-12-14T19:25:47.206Z,-5.76
2022-12-14T19:28:31.589Z,-5.78
2022-12-14T19:31:01.196Z,-5.84
2022-12-14T19:33:29.160Z,-5.81
2022-12-14T19:35:56.512Z,-5.85
2022-12-14T19:38:23.529Z,-5.84
2022-12-14T19:41:20.087Z,-5.88
2022-12-14T19:43:47.504Z,-5.90
2022-12-14T19:46:15.722Z,-5.91
2022-12-14T19:48:44.578Z,-5.93
2022-12-14T19:51:13.516Z,-5.99
2022-12-14T19:53:44.899Z,-6.03
2022-12-14T19:56:16.790Z,-6.11
2022-12-14T19:58:44.989Z,-6.03
2022-12-14T20:01:15.274Z,-6.09
2022-12-14T20:03:42.857Z,-6.09
2022-12-14T20:06:09.998Z,-6.13
2022-12-14T20:08:37.654Z,-6.12
2022-12-14T20:11:10.995Z,-6.09
2022-12-14T20:13:38.482Z,-6.13
2022-12-14T20:16:15.608Z,-6.14
2022-12-14T20:18:43.074Z,-6.06
2022-12-14T20:21:14.993Z,-6.06
2022-12-14T20:23:49.087Z,-6.13
2022-12-14T20:26:18.315Z,-6.06
2022-12-14T20:28:50.328Z,-6.02
2022-12-14T20:31:18.254Z,-6.00
2022-12-14T20:33:45.625Z,-6.02
2022-12-14T20:36:13.424Z,-6.05
2022-12-14T20:38:41.185Z,-6.03
2022-12-14T20:41:13.513Z,-6.01
2022-12-14T20:43:43.439Z,-6.03
2022-12-14T20:46:31.530Z,-6.00
2022-12-14T20:49:03.728Z,-5.98
2022-12-14T20:51:32.912Z,-6.03
2022-12-14T20:54:00.867Z,-5.99
2022-12-14T20:56:28.567Z,-5.91
2022-12-14T20:58:56.057Z,-5.89
2022-12-14T21:01:23.487Z,-5.97
2022-12-14T21:03:51.179Z,-5.78
2022-12-14T21:06:21.266Z,-5.75
2022-12-14T21:09:07.369Z,-5.78
2022-12-14T21:11:58.341Z,-5.66
2022-12-14T21:14:31.081Z,-5.58
2022-12-14T21:16:59.118Z,-5.49
2022-12-14T21:19:26.433Z,-5.43
2022-12-14T21:21:54.369Z,-5.32
2022-12-14T21:25:00.495Z,-5.29
2022-12-14T21:27:18.065Z,-5.30
2022-12-14T21:29:45.897Z,-5.30
2022-12-14T21:32:14.116Z,-5.33
2022-12-14T21:34:42.548Z,-5.37
2022-12-14T21:37:10.117Z,-5.41
2022-12-14T21:39:37.560Z,-5.40
2022-12-14T21:42:12.875Z,-5.43
2022-12-14T21:44:44.815Z,-5.40
2022-12-14T21:47:24.110Z,-5.43
2022-12-14T21:49:51.467Z,-5.46
2022-12-14T21:52:21.325Z,-5.42
2022-12-14T21:54:48.569Z,-5.43
2022-12-14T21:57:37.032Z,-5.53
2022-12-14T22:00:07.568Z,-5.46
2022-12-14T22:02:34.893Z,-5.49
2022-12-14T22:05:02.241Z,-5.48
2022-12-14T22:07:32.222Z,-5.50
2022-12-14T22:09:59.378Z,-5.51
2022-12-14T22:12:27.043Z,-5.57
2022-12-14T22:14:54.045Z,-5.56
2022-12-14T22:17:21.149Z,-5.62
2022-12-14T22:19:48.909Z,-5.55
2022-12-14T22:22:16.693Z,-5.68
2022-12-14T22:24:45.085Z,-5.58
2022-12-14T22:27:12.976Z,-5.57
2022-12-14T22:29:40.266Z,-5.56
2022-12-14T22:32:07.692Z,-5.56
2022-12-14T22:34:35.470Z,-5.75
2022-12-14T22:37:02.608Z,-5.64
2022-12-14T22:39:29.753Z,-5.64
2022-12-14T22:41:57.080Z,-5.65
2022-12-14T22:44:24.294Z,-5.66
2022-12-14T22:46:51.274Z,-5.68
2022-12-14T22:49:19.695Z,-5.69
2022-12-14T22:51:46.850Z,-5.79
2022-12-14T22:54:32.579Z,-5.73
2022-12-14T22:57:10.204Z,-5.79
2022-12-14T22:59:48.196Z,-5.76
2022-12-14T23:02:15.819Z,-5.75
2022-12-14T23:04:43.016Z,-5.78
2022-12-14T23:07:10.099Z,-5.72
2022-12-14T23:09:55.455Z,-5.65
2022-12-14T23:12:40.991Z,-5.62
2022-12-14T23:15:27.351Z,-5.63
2022-12-14T23:18:14.146Z,-5.69
2022-12-14T23:20:59.600Z,-5.65
2022-12-14T23:23:45.012Z,-5.71
2022-12-14T23:26:30.938Z,-5.65
2022-12-14T23:29:16.427Z,-5.73
2022-12-14T23:32:01.711Z,-5.66
2022-12-14T23:34:47.910Z,-5.69
2022-12-14T23:37:34.085Z,-5.69
2022-12-14T23:40:19.535Z,-5.68
2022-12-14T23:43:06.052Z,-5.66
2022-12-14T23:45:51.462Z,-5.71
2022-12-14T23:48:37.041Z,-5.71
2022-12-14T23:51:22.986Z,-5.72
2022-12-14T23:54:08.900Z,-5.75
2022-12-14T23:56:57.655Z,-5.84
2022-12-14T23:59:43.031Z,-5.82
